KAXN/AXN METAR and TAF weather

Enter ICAO airport designator
Station Type Date Time Source
KAXN METAR 2019/10/21 23:24 UTC NOAA

KAXN 212324Z AUTO 35029G44KT 5SM RA BR OVC018 06/03 A2929 RMK AO2 PK WND 35044/2324 P0007 T00560033


Station Type Date Time Source
KAXN Decoded METAR 2019/10/21 23:24 UTC NOAA

CHANDLER FIELD, MN, United States (KAXN) 45-52N 095-24W 433M
Oct 21, 2019 - 07:24 PM EDT / 2019.10.21 2324 UTC
Wind: from the N (350 degrees) at 33 MPH (29 KT) gusting to 51 MPH (44 KT):0
Visibility: 5 mile(s):0
Sky conditions: overcast
Weather: rain; mist
Precipitation last hour: 0.07 inches
Temperature: 42.1 F (5.6 C)
Dew Point: 37.9 F (3.3 C)
Relative Humidity: 85%
Pressure (altimeter): 29.29 in. Hg (991 hPa)
ob: KAXN 212324Z AUTO 35029G44KT 5SM RA BR OVC018 06/03 A2929 RMK AO2 PK WND 35044/2324 P0007 T00560033
cycle: 23

Station Type Date Time Source
KAXN TAF 2019/10/21 18:42 UTC NOAA

TAF KAXN 211739Z 2118/2218 02023G32KT 4SM -RA BR OVC025
FM212000 02022G35KT 3SM RA BR OVC015
FM212200 36027G42KT 3SM RA BR OVC008
FM221000 31029G44KT 4SM -RA BR OVC011
FM221700 31026G35KT 6SM -SHRA OVC025

Example: see airport list